sensor_id;sensor_type;location;lat;lon;timestamp;temperature;humidity
6429;DHT22;3247;48.946;10.220;2022-08-19T00:02:02;19.70;99.90
6429;DHT22;3247;48.946;10.220;2022-08-19T00:04:29;19.50;99.90
6429;DHT22;3247;48.946;10.220;2022-08-19T00:06:55;20.90;99.90
6429;DHT22;3247;48.946;10.220;2022-08-19T00:09:21;19.60;99.90
6429;DHT22;3247;48.946;10.220;2022-08-19T00:11:47;20.40;99.90
6429;DHT22;3247;48.946;10.220;2022-08-19T00:14:14;20.70;99.90
6429;DHT22;3247;48.946;10.220;2022-08-19T00:16:41;19.30;99.90
6429;DHT22;3247;48.946;10.220;2022-08-19T00:22:06;19.60;99.90
6429;DHT22;3247;48.946;10.220;2022-08-19T00:24:34;19.50;99.90
6429;DHT22;3247;48.946;10.220;2022-08-19T00:26:59;19.80;99.90
6429;DHT22;3247;48.946;10.220;2022-08-19T00:29:27;20.20;99.90
6429;DHT22;3247;48.946;10.220;2022-08-19T00:31:52;19.50;99.90
6429;DHT22;3247;48.946;10.220;2022-08-19T00:34:18;19.40;99.90
6429;DHT22;3247;48.946;10.220;2022-08-19T00:36:44;20.20;99.90
6429;DHT22;3247;48.946;10.220;2022-08-19T00:39:10;20.80;99.90
6429;DHT22;3247;48.946;10.220;2022-08-19T00:41:35;19.40;99.90
6429;DHT22;3247;48.946;10.220;2022-08-19T00:44:04;20.30;99.90
6429;DHT22;3247;48.946;10.220;2022-08-19T00:46:30;19.40;99.90
6429;DHT22;3247;48.946;10.220;2022-08-19T00:52:04;19.40;99.90
6429;DHT22;3247;48.946;10.220;2022-08-19T00:54:31;19.40;99.90
6429;DHT22;3247;48.946;10.220;2022-08-19T00:56:58;19.40;99.90
6429;DHT22;3247;48.946;10.220;2022-08-19T00:59:24;18.30;99.90
6429;DHT22;3247;48.946;10.220;2022-08-19T01:01:50;19.40;99.90
6429;DHT22;3247;48.946;10.220;2022-08-19T01:04:16;19.40;99.90
6429;DHT22;3247;48.946;10.220;2022-08-19T01:06:41;20.50;99.90
6429;DHT22;3247;48.946;10.220;2022-08-19T01:09:07;19.30;99.90
6429;DHT22;3247;48.946;10.220;2022-08-19T01:11:34;19.40;99.90
6429;DHT22;3247;48.946;10.220;2022-08-19T01:14:00;20.20;99.90
6429;DHT22;3247;48.946;10.220;2022-08-19T01:16:26;20.70;99.90
6429;DHT22;3247;48.946;10.220;2022-08-19T01:21:48;19.30;99.90
6429;DHT22;3247;48.946;10.220;2022-08-19T01:24:15;19.30;99.90
6429;DHT22;3247;48.946;10.220;2022-08-19T01:26:41;20.30;99.90
6429;DHT22;3247;48.946;10.220;2022-08-19T01:29:08;20.70;99.90
6429;DHT22;3247;48.946;10.220;2022-08-19T01:31:34;19.30;99.90
6429;DHT22;3247;48.946;10.220;2022-08-19T01:34:00;20.60;99.90
6429;DHT22;3247;48.946;10.220;2022-08-19T01:36:27;20.60;99.90
6429;DHT22;3247;48.946;10.220;2022-08-19T01:38:53;20.60;99.90
6429;DHT22;3247;48.946;10.220;2022-08-19T01:41:19;19.10;99.90
6429;DHT22;3247;48.946;10.220;2022-08-19T01:43:44;20.20;99.90
6429;DHT22;3247;48.946;10.220;2022-08-19T01:46:10;19.00;99.90
6429;DHT22;3247;48.946;10.220;2022-08-19T01:48:38;19.30;99.90
6429;DHT22;3247;48.946;10.220;2022-08-19T01:51:03;20.00;99.90
6429;DHT22;3247;48.946;10.220;2022-08-19T01:53:29;19.10;99.90
6429;DHT22;3247;48.946;10.220;2022-08-19T01:55:55;20.30;99.90
6429;DHT22;3247;48.946;10.220;2022-08-19T01:58:22;18.90;99.90
6429;DHT22;3247;48.946;10.220;2022-08-19T02:00:49;20.30;99.90
6429;DHT22;3247;48.946;10.220;2022-08-19T02:03:15;18.90;99.90
6429;DHT22;3247;48.946;10.220;2022-08-19T02:05:41;19.50;99.90
6429;DHT22;3247;48.946;10.220;2022-08-19T02:08:07;19.10;99.90
6429;DHT22;3247;48.946;10.220;2022-08-19T02:10:32;19.80;99.90
6429;DHT22;3247;48.946;10.220;2022-08-19T02:12:58;19.10;99.90
6429;DHT22;3247;48.946;10.220;2022-08-19T02:15:24;18.80;99.90
6429;DHT22;3247;48.946;10.220;2022-08-19T02:17:50;18.70;99.90
6429;DHT22;3247;48.946;10.220;2022-08-19T02:20:28;18.70;99.90
6429;DHT22;3247;48.946;10.220;2022-08-19T02:22:54;18.60;99.90
6429;DHT22;3247;48.946;10.220;2022-08-19T02:25:19;19.50;99.90
6429;DHT22;3247;48.946;10.220;2022-08-19T02:27:45;19.30;99.90
6429;DHT22;3247;48.946;10.220;2022-08-19T02:30:12;18.70;99.90
6429;DHT22;3247;48.946;10.220;2022-08-19T02:32:38;18.50;99.90
6429;DHT22;3247;48.946;10.220;2022-08-19T02:35:04;18.40;99.90
6429;DHT22;3247;48.946;10.220;2022-08-19T02:37:30;18.50;99.90
6429;DHT22;3247;48.946;10.220;2022-08-19T02:40:14;19.40;99.90
6429;DHT22;3247;48.946;10.220;2022-08-19T02:42:40;18.50;99.90
6429;DHT22;3247;48.946;10.220;2022-08-19T02:45:08;18.50;99.90
6429;DHT22;3247;48.946;10.220;2022-08-19T02:47:33;18.50;99.90
6429;DHT22;3247;48.946;10.220;2022-08-19T02:50:02;18.30;99.90
6429;DHT22;3247;48.946;10.220;2022-08-19T02:52:28;18.50;99.90
6429;DHT22;3247;48.946;10.220;2022-08-19T02:54:55;18.50;99.90
6429;DHT22;3247;48.946;10.220;2022-08-19T02:57:23;19.20;99.90
6429;DHT22;3247;48.946;10.220;2022-08-19T02:59:48;18.40;99.90
6429;DHT22;3247;48.946;10.220;2022-08-19T03:02:15;19.30;99.90
6429;DHT22;3247;48.946;10.220;2022-08-19T03:04:41;18.40;99.90
6429;DHT22;3247;48.946;10.220;2022-08-19T03:07:07;18.80;99.90
6429;DHT22;3247;48.946;10.220;2022-08-19T03:09:35;19.60;99.90
6429;DHT22;3247;48.946;10.220;2022-08-19T03:12:02;18.00;99.90
6429;DHT22;3247;48.946;10.220;2022-08-19T03:14:29;18.40;99.90
6429;DHT22;3247;48.946;10.220;2022-08-19T03:16:55;18.90;99.90
6429;DHT22;3247;48.946;10.220;2022-08-19T03:19:21;18.40;99.90
6429;DHT22;3247;48.946;10.220;2022-08-19T03:21:46;18.30;99.90
6429;DHT22;3247;48.946;10.220;2022-08-19T03:24:12;19.10;99.90
6429;DHT22;3247;48.946;10.220;2022-08-19T03:26:39;18.30;99.90
6429;DHT22;3247;48.946;10.220;2022-08-19T03:29:05;19.10;99.90
6429;DHT22;3247;48.946;10.220;2022-08-19T03:31:31;18.20;99.90
6429;DHT22;3247;48.946;10.220;2022-08-19T03:33:57;18.30;99.90
6429;DHT22;3247;48.946;10.220;2022-08-19T03:36:24;18.30;99.90
6429;DHT22;3247;48.946;10.220;2022-08-19T03:38:51;19.30;99.90
6429;DHT22;3247;48.946;10.220;2022-08-19T03:41:18;19.10;99.90
6429;DHT22;3247;48.946;10.220;2022-08-19T03:43:44;18.20;99.90
6429;DHT22;3247;48.946;10.220;2022-08-19T03:46:14;18.20;99.90
6429;DHT22;3247;48.946;10.220;2022-08-19T03:48:46;18.20;99.90
6429;DHT22;3247;48.946;10.220;2022-08-19T03:51:19;18.20;99.90
6429;DHT22;3247;48.946;10.220;2022-08-19T03:53:45;18.30;99.90
6429;DHT22;3247;48.946;10.220;2022-08-19T03:56:11;19.70;99.90
6429;DHT22;3247;48.946;10.220;2022-08-19T03:58:37;18.20;99.90
6429;DHT22;3247;48.946;10.220;2022-08-19T04:01:08;19.80;99.90
6429;DHT22;3247;48.946;10.220;2022-08-19T04:03:34;18.20;99.90
6429;DHT22;3247;48.946;10.220;2022-08-19T04:06:11;18.20;99.90
6429;DHT22;3247;48.946;10.220;2022-08-19T04:08:38;18.30;99.90
6429;DHT22;3247;48.946;10.220;2022-08-19T04:11:06;18.30;99.90
6429;DHT22;3247;48.946;10.220;2022-08-19T04:13:31;18.80;99.90
6429;DHT22;3247;48.946;10.220;2022-08-19T04:15:57;18.20;99.90
6429;DHT22;3247;48.946;10.220;2022-08-19T04:18:22;18.50;99.90
6429;DHT22;3247;48.946;10.220;2022-08-19T04:20:49;18.20;99.90
6429;DHT22;3247;48.946;10.220;2022-08-19T04:23:14;19.10;99.90
6429;DHT22;3247;48.946;10.220;2022-08-19T04:25:41;18.20;99.90
6429;DHT22;3247;48.946;10.220;2022-08-19T04:28:07;18.40;99.90
6429;DHT22;3247;48.946;10.220;2022-08-19T04:30:42;18.10;99.90
6429;DHT22;3247;48.946;10.220;2022-08-19T04:33:08;18.10;99.90
6429;DHT22;3247;48.946;10.220;2022-08-19T04:35:34;18.10;99.90
6429;DHT22;3247;48.946;10.220;2022-08-19T04:38:02;18.20;99.90
6429;DHT22;3247;48.946;10.220;2022-08-19T04:40:27;18.80;99.90
6429;DHT22;3247;48.946;10.220;2022-08-19T04:43:11;19.60;99.90
6429;DHT22;3247;48.946;10.220;2022-08-19T04:45:38;18.10;99.90
6429;DHT22;3247;48.946;10.220;2022-08-19T04:48:04;18.10;99.90
6429;DHT22;3247;48.946;10.220;2022-08-19T04:50:29;18.10;99.90
6429;DHT22;3247;48.946;10.220;2022-08-19T04:52:55;18.10;99.90
6429;DHT22;3247;48.946;10.220;2022-08-19T04:55:21;18.10;99.90
6429;DHT22;3247;48.946;10.220;2022-08-19T04:57:46;19.60;99.90
6429;DHT22;3247;48.946;10.220;2022-08-19T05:00:12;19.50;99.90
6429;DHT22;3247;48.946;10.220;2022-08-19T05:02:38;18.00;99.90
6429;DHT22;3247;48.946;10.220;2022-08-19T05:05:04;18.60;99.90
6429;DHT22;3247;48.946;10.220;2022-08-19T05:07:31;18.10;99.90
6429;DHT22;3247;48.946;10.220;2022-08-19T05:09:57;19.60;99.90
6429;DHT22;3247;48.946;10.220;2022-08-19T05:12:22;19.60;99.90
6429;DHT22;3247;48.946;10.220;2022-08-19T05:14:48;19.10;99.90
6429;DHT22;3247;48.946;10.220;2022-08-19T05:17:14;19.50;99.90
6429;DHT22;3247;48.946;10.220;2022-08-19T05:19:43;18.60;99.90
6429;DHT22;3247;48.946;10.220;2022-08-19T05:22:27;18.20;99.90
6429;DHT22;3247;48.946;10.220;2022-08-19T05:25:04;19.40;99.90
6429;DHT22;3247;48.946;10.220;2022-08-19T05:27:30;18.20;99.90
6429;DHT22;3247;48.946;10.220;2022-08-19T05:29:56;18.20;99.90
6429;DHT22;3247;48.946;10.220;2022-08-19T05:32:21;19.40;99.90
6429;DHT22;3247;48.946;10.220;2022-08-19T05:34:48;18.20;99.90
6429;DHT22;3247;48.946;10.220;2022-08-19T05:37:14;19.60;99.90
6429;DHT22;3247;48.946;10.220;2022-08-19T05:39:39;18.10;99.90
6429;DHT22;3247;48.946;10.220;2022-08-19T05:42:08;18.50;99.90
6429;DHT22;3247;48.946;10.220;2022-08-19T05:44:35;18.20;99.90
6429;DHT22;3247;48.946;10.220;2022-08-19T05:47:02;18.20;99.90
6429;DHT22;3247;48.946;10.220;2022-08-19T05:49:48;18.20;99.90
6429;DHT22;3247;48.946;10.220;2022-08-19T05:52:15;18.30;99.90
6429;DHT22;3247;48.946;10.220;2022-08-19T05:54:41;19.50;99.90
6429;DHT22;3247;48.946;10.220;2022-08-19T05:57:07;18.30;99.90
6429;DHT22;3247;48.946;10.220;2022-08-19T05:59:32;19.70;99.90
6429;DHT22;3247;48.946;10.220;2022-08-19T06:02:00;18.50;99.90
6429;DHT22;3247;48.946;10.220;2022-08-19T06:04:26;18.80;99.90
6429;DHT22;3247;48.946;10.220;2022-08-19T06:06:52;18.40;99.90
6429;DHT22;3247;48.946;10.220;2022-08-19T06:09:19;19.00;99.90
6429;DHT22;3247;48.946;10.220;2022-08-19T06:11:46;18.40;99.90
6429;DHT22;3247;48.946;10.220;2022-08-19T06:14:13;18.50;99.90
6429;DHT22;3247;48.946;10.220;2022-08-19T06:16:40;19.90;99.90
6429;DHT22;3247;48.946;10.220;2022-08-19T06:19:07;20.10;99.90
6429;DHT22;3247;48.946;10.220;2022-08-19T06:21:33;18.50;99.90
6429;DHT22;3247;48.946;10.220;2022-08-19T06:24:03;18.50;99.90
6429;DHT22;3247;48.946;10.220;2022-08-19T06:26:28;18.40;99.90
6429;DHT22;3247;48.946;10.220;2022-08-19T06:28:54;18.50;99.90
6429;DHT22;3247;48.946;10.220;2022-08-19T06:31:21;18.50;99.90
6429;DHT22;3247;48.946;10.220;2022-08-19T06:33:47;18.40;99.90
6429;DHT22;3247;48.946;10.220;2022-08-19T06:36:24;18.70;99.90
6429;DHT22;3247;48.946;10.220;2022-08-19T06:38:55;18.40;99.90
6429;DHT22;3247;48.946;10.220;2022-08-19T06:41:22;18.40;99.90
6429;DHT22;3247;48.946;10.220;2022-08-19T06:43:47;18.80;99.90
6429;DHT22;3247;48.946;10.220;2022-08-19T06:46:14;18.90;99.90
6429;DHT22;3247;48.946;10.220;2022-08-19T06:48:43;18.40;99.90
6429;DHT22;3247;48.946;10.220;2022-08-19T06:51:09;18.50;99.90
6429;DHT22;3247;48.946;10.220;2022-08-19T06:53:34;18.50;99.90
6429;DHT22;3247;48.946;10.220;2022-08-19T06:56:00;18.60;99.90
6429;DHT22;3247;48.946;10.220;2022-08-19T06:58:30;18.60;99.90
6429;DHT22;3247;48.946;10.220;2022-08-19T07:01:00;19.00;99.90
6429;DHT22;3247;48.946;10.220;2022-08-19T07:03:28;18.80;99.90
6429;DHT22;3247;48.946;10.220;2022-08-19T07:05:54;19.40;99.90
6429;DHT22;3247;48.946;10.220;2022-08-19T07:08:19;18.90;99.90
6429;DHT22;3247;48.946;10.220;2022-08-19T07:10:45;19.80;99.90
6429;DHT22;3247;48.946;10.220;2022-08-19T07:13:11;19.90;99.90
6429;DHT22;3247;48.946;10.220;2022-08-19T07:15:36;19.00;99.90
6429;DHT22;3247;48.946;10.220;2022-08-19T07:18:02;20.10;99.90
6429;DHT22;3247;48.946;10.220;2022-08-19T07:20:28;19.10;99.90
6429;DHT22;3247;48.946;10.220;2022-08-19T07:22:54;19.10;99.90
6429;DHT22;3247;48.946;10.220;2022-08-19T07:25:19;19.10;99.90
6429;DHT22;3247;48.946;10.220;2022-08-19T07:27:48;19.20;99.90
6429;DHT22;3247;48.946;10.220;2022-08-19T07:30:14;20.20;99.90
6429;DHT22;3247;48.946;10.220;2022-08-19T07:32:39;21.10;99.90
6429;DHT22;3247;48.946;10.220;2022-08-19T07:35:05;19.90;99.90
6429;DHT22;3247;48.946;10.220;2022-08-19T07:37:31;19.30;99.90
6429;DHT22;3247;48.946;10.220;2022-08-19T07:39:56;19.30;99.90
6429;DHT22;3247;48.946;10.220;2022-08-19T07:42:22;19.40;99.90
6429;DHT22;3247;48.946;10.220;2022-08-19T07:44:47;19.30;99.90
6429;DHT22;3247;48.946;10.220;2022-08-19T07:47:13;19.30;99.90
6429;DHT22;3247;48.946;10.220;2022-08-19T07:49:45;19.40;99.90
6429;DHT22;3247;48.946;10.220;2022-08-19T07:52:12;19.40;99.90
6429;DHT22;3247;48.946;10.220;2022-08-19T07:54:38;19.40;99.90
6429;DHT22;3247;48.946;10.220;2022-08-19T07:57:03;20.50;99.90
6429;DHT22;3247;48.946;10.220;2022-08-19T07:59:29;19.40;99.90
6429;DHT22;3247;48.946;10.220;2022-08-19T08:01:55;19.30;99.90
6429;DHT22;3247;48.946;10.220;2022-08-19T08:04:21;20.30;99.90
6429;DHT22;3247;48.946;10.220;2022-08-19T08:07:05;20.80;99.90
6429;DHT22;3247;48.946;10.220;2022-08-19T08:09:50;19.50;99.90
6429;DHT22;3247;48.946;10.220;2022-08-19T08:12:18;20.80;99.90
6429;DHT22;3247;48.946;10.220;2022-08-19T08:14:46;20.00;99.90
6429;DHT22;3247;48.946;10.220;2022-08-19T08:17:12;19.80;99.90
6429;DHT22;3247;48.946;10.220;2022-08-19T08:19:38;21.10;99.90
6429;DHT22;3247;48.946;10.220;2022-08-19T08:22:06;20.60;99.90
6429;DHT22;3247;48.946;10.220;2022-08-19T08:24:32;20.10;99.90
6429;DHT22;3247;48.946;10.220;2022-08-19T08:26:59;20.00;99.90
6429;DHT22;3247;48.946;10.220;2022-08-19T08:29:26;20.50;99.90
6429;DHT22;3247;48.946;10.220;2022-08-19T08:31:53;20.00;99.90
6429;DHT22;3247;48.946;10.220;2022-08-19T08:34:19;19.50;99.90
6429;DHT22;3247;48.946;10.220;2022-08-19T08:36:46;20.20;99.90
6429;DHT22;3247;48.946;10.220;2022-08-19T08:39:16;20.40;99.90
6429;DHT22;3247;48.946;10.220;2022-08-19T08:44:11;20.80;99.90
6429;DHT22;3247;48.946;10.220;2022-08-19T08:46:40;21.50;99.90
6429;DHT22;3247;48.946;10.220;2022-08-19T08:49:27;21.00;99.90
6429;DHT22;3247;48.946;10.220;2022-08-19T08:54:39;21.20;99.90
6429;DHT22;3247;48.946;10.220;2022-08-19T08:57:09;22.60;99.90
6429;DHT22;3247;48.946;10.220;2022-08-19T08:59:38;21.10;99.90
6429;DHT22;3247;48.946;10.220;2022-08-19T09:02:04;20.80;99.90
6429;DHT22;3247;48.946;10.220;2022-08-19T09:04:30;21.10;99.90
6429;DHT22;3247;48.946;10.220;2022-08-19T09:09:43;20.50;99.90
6429;DHT22;3247;48.946;10.220;2022-08-19T09:15:02;20.40;99.90
6429;DHT22;3247;48.946;10.220;2022-08-19T09:17:29;20.40;99.90
6429;DHT22;3247;48.946;10.220;2022-08-19T09:20:00;20.90;99.90
6429;DHT22;3247;48.946;10.220;2022-08-19T09:22:32;20.40;99.90
6429;DHT22;3247;48.946;10.220;2022-08-19T09:24:57;20.50;99.90
6429;DHT22;3247;48.946;10.220;2022-08-19T09:27:23;21.50;99.90
6429;DHT22;3247;48.946;10.220;2022-08-19T09:29:49;20.80;99.90
6429;DHT22;3247;48.946;10.220;2022-08-19T09:32:15;20.40;99.90
6429;DHT22;3247;48.946;10.220;2022-08-19T09:34:41;20.40;99.90
6429;DHT22;3247;48.946;10.220;2022-08-19T09:37:07;20.90;99.90
6429;DHT22;3247;48.946;10.220;2022-08-19T09:39:32;20.30;99.90
6429;DHT22;3247;48.946;10.220;2022-08-19T09:41:58;21.40;99.90
6429;DHT22;3247;48.946;10.220;2022-08-19T09:44:23;21.40;99.90
6429;DHT22;3247;48.946;10.220;2022-08-19T09:46:49;20.70;99.90
6429;DHT22;3247;48.946;10.220;2022-08-19T09:49:22;21.60;99.90
6429;DHT22;3247;48.946;10.220;2022-08-19T09:51:51;20.10;99.90
6429;DHT22;3247;48.946;10.220;2022-08-19T09:54:17;20.20;99.90
6429;DHT22;3247;48.946;10.220;2022-08-19T09:56:43;20.80;99.90
6429;DHT22;3247;48.946;10.220;2022-08-19T09:59:09;20.00;99.90
6429;DHT22;3247;48.946;10.220;2022-08-19T10:01:35;20.00;99.90
6429;DHT22;3247;48.946;10.220;2022-08-19T10:04:01;20.00;99.90
6429;DHT22;3247;48.946;10.220;2022-08-19T10:06:28;20.10;99.90
6429;DHT22;3247;48.946;10.220;2022-08-19T10:08:56;21.00;99.90
6429;DHT22;3247;48.946;10.220;2022-08-19T10:11:22;20.10;99.90
6429;DHT22;3247;48.946;10.220;2022-08-19T10:13:48;20.10;99.90
6429;DHT22;3247;48.946;10.220;2022-08-19T10:16:15;20.00;99.90
6429;DHT22;3247;48.946;10.220;2022-08-19T10:18:41;20.00;99.90
6429;DHT22;3247;48.946;10.220;2022-08-19T10:21:14;20.40;99.90
6429;DHT22;3247;48.946;10.220;2022-08-19T10:23:42;19.90;99.90
6429;DHT22;3247;48.946;10.220;2022-08-19T10:26:11;19.90;99.90
6429;DHT22;3247;48.946;10.220;2022-08-19T10:28:36;20.80;99.90
6429;DHT22;3247;48.946;10.220;2022-08-19T10:31:06;20.80;99.90
6429;DHT22;3247;48.946;10.220;2022-08-19T10:33:33;19.90;99.90
6429;DHT22;3247;48.946;10.220;2022-08-19T10:35:59;20.10;99.90
6429;DHT22;3247;48.946;10.220;2022-08-19T10:38:25;21.40;99.90
6429;DHT22;3247;48.946;10.220;2022-08-19T10:40:50;19.70;99.90
6429;DHT22;3247;48.946;10.220;2022-08-19T10:43:16;21.20;99.90
6429;DHT22;3247;48.946;10.220;2022-08-19T10:45:42;19.50;99.90
6429;DHT22;3247;48.946;10.220;2022-08-19T10:48:07;20.00;99.90
6429;DHT22;3247;48.946;10.220;2022-08-19T10:50:33;19.40;99.90
6429;DHT22;3247;48.946;10.220;2022-08-19T10:53:17;19.90;99.90
6429;DHT22;3247;48.946;10.220;2022-08-19T10:55:44;19.20;99.90
6429;DHT22;3247;48.946;10.220;2022-08-19T10:58:28;19.40;99.90
6429;DHT22;3247;48.946;10.220;2022-08-19T11:00:54;19.10;99.90
6429;DHT22;3247;48.946;10.220;2022-08-19T11:03:20;19.10;99.90
6429;DHT22;3247;48.946;10.220;2022-08-19T11:05:46;19.10;99.90
6429;DHT22;3247;48.946;10.220;2022-08-19T11:08:12;19.20;99.90
6429;DHT22;3247;48.946;10.220;2022-08-19T11:10:41;19.00;99.90
6429;DHT22;3247;48.946;10.220;2022-08-19T11:13:06;19.30;99.90
6429;DHT22;3247;48.946;10.220;2022-08-19T11:15:32;19.80;99.90
6429;DHT22;3247;48.946;10.220;2022-08-19T11:18:01;19.30;99.90
6429;DHT22;3247;48.946;10.220;2022-08-19T11:20:27;18.90;99.90
6429;DHT22;3247;48.946;10.220;2022-08-19T11:22:52;19.00;99.90
6429;DHT22;3247;48.946;10.220;2022-08-19T11:25:18;19.00;99.90
6429;DHT22;3247;48.946;10.220;2022-08-19T11:27:44;18.90;99.90
6429;DHT22;3247;48.946;10.220;2022-08-19T11:30:11;19.90;99.90
6429;DHT22;3247;48.946;10.220;2022-08-19T11:32:38;18.90;99.90
6429;DHT22;3247;48.946;10.220;2022-08-19T11:35:03;18.90;99.90
6429;DHT22;3247;48.946;10.220;2022-08-19T11:37:29;18.90;99.90
6429;DHT22;3247;48.946;10.220;2022-08-19T11:39:55;19.00;99.90
6429;DHT22;3247;48.946;10.220;2022-08-19T11:42:20;19.10;99.90
6429;DHT22;3247;48.946;10.220;2022-08-19T11:45:04;18.90;99.90
6429;DHT22;3247;48.946;10.220;2022-08-19T11:47:30;18.90;99.90
6429;DHT22;3247;48.946;10.220;2022-08-19T11:49:56;19.00;99.90
6429;DHT22;3247;48.946;10.220;2022-08-19T11:52:22;19.00;99.90
6429;DHT22;3247;48.946;10.220;2022-08-19T11:54:47;19.00;99.90
6429;DHT22;3247;48.946;10.220;2022-08-19T11:57:13;20.00;99.90
6429;DHT22;3247;48.946;10.220;2022-08-19T11:59:42;20.50;99.90
6429;DHT22;3247;48.946;10.220;2022-08-19T12:02:07;20.30;99.90
6429;DHT22;3247;48.946;10.220;2022-08-19T12:04:33;19.10;99.90
6429;DHT22;3247;48.946;10.220;2022-08-19T12:06:59;19.20;99.90
6429;DHT22;3247;48.946;10.220;2022-08-19T12:09:25;18.70;99.90
6429;DHT22;3247;48.946;10.220;2022-08-19T12:11:51;19.30;99.90
6429;DHT22;3247;48.946;10.220;2022-08-19T12:14:16;19.30;99.90
6429;DHT22;3247;48.946;10.220;2022-08-19T12:16:43;19.20;99.90
6429;DHT22;3247;48.946;10.220;2022-08-19T12:19:13;20.60;99.90
6429;DHT22;3247;48.946;10.220;2022-08-19T12:21:38;19.30;99.90
6429;DHT22;3247;48.946;10.220;2022-08-19T12:24:04;19.30;99.90
6429;DHT22;3247;48.946;10.220;2022-08-19T12:26:30;19.20;99.90
6429;DHT22;3247;48.946;10.220;2022-08-19T12:28:56;19.30;99.90
6429;DHT22;3247;48.946;10.220;2022-08-19T12:31:25;19.20;99.90
6429;DHT22;3247;48.946;10.220;2022-08-19T12:33:50;19.10;99.90
6429;DHT22;3247;48.946;10.220;2022-08-19T12:36:17;19.10;99.90
6429;DHT22;3247;48.946;10.220;2022-08-19T12:38:43;19.10;99.90
6429;DHT22;3247;48.946;10.220;2022-08-19T12:41:10;19.00;99.90
6429;DHT22;3247;48.946;10.220;2022-08-19T12:43:36;20.20;99.90
6429;DHT22;3247;48.946;10.220;2022-08-19T12:46:03;19.00;99.90
6429;DHT22;3247;48.946;10.220;2022-08-19T12:48:29;19.00;99.90
6429;DHT22;3247;48.946;10.220;2022-08-19T12:50:55;19.90;99.90
6429;DHT22;3247;48.946;10.220;2022-08-19T12:53:20;19.10;99.90
6429;DHT22;3247;48.946;10.220;2022-08-19T12:55:46;18.20;99.90
6429;DHT22;3247;48.946;10.220;2022-08-19T12:58:11;20.10;99.90
6429;DHT22;3247;48.946;10.220;2022-08-19T13:00:38;20.50;99.90
6429;DHT22;3247;48.946;10.220;2022-08-19T13:03:03;19.00;99.90
6429;DHT22;3247;48.946;10.220;2022-08-19T13:05:31;19.00;99.90
6429;DHT22;3247;48.946;10.220;2022-08-19T13:07:58;19.00;99.90
6429;DHT22;3247;48.946;10.220;2022-08-19T13:10:26;19.00;99.90
6429;DHT22;3247;48.946;10.220;2022-08-19T13:12:53;19.00;99.90
6429;DHT22;3247;48.946;10.220;2022-08-19T13:15:19;20.10;99.90
6429;DHT22;3247;48.946;10.220;2022-08-19T13:17:45;19.00;99.90
6429;DHT22;3247;48.946;10.220;2022-08-19T13:20:10;19.40;99.90
6429;DHT22;3247;48.946;10.220;2022-08-19T13:22:36;19.00;99.90
6429;DHT22;3247;48.946;10.220;2022-08-19T13:25:02;19.10;99.90
6429;DHT22;3247;48.946;10.220;2022-08-19T13:27:28;19.00;99.90
6429;DHT22;3247;48.946;10.220;2022-08-19T13:29:54;20.20;99.90
6429;DHT22;3247;48.946;10.220;2022-08-19T13:32:38;19.60;99.90
6429;DHT22;3247;48.946;10.220;2022-08-19T13:35:22;19.00;99.90
6429;DHT22;3247;48.946;10.220;2022-08-19T13:37:47;20.50;99.90
6429;DHT22;3247;48.946;10.220;2022-08-19T13:40:20;19.00;99.90
6429;DHT22;3247;48.946;10.220;2022-08-19T13:42:49;19.00;99.90
6429;DHT22;3247;48.946;10.220;2022-08-19T13:45:15;18.90;99.90
6429;DHT22;3247;48.946;10.220;2022-08-19T13:47:45;18.90;99.90
6429;DHT22;3247;48.946;10.220;2022-08-19T13:50:11;20.40;99.90
6429;DHT22;3247;48.946;10.220;2022-08-19T13:52:37;18.80;99.90
6429;DHT22;3247;48.946;10.220;2022-08-19T13:55:03;20.30;99.90
6429;DHT22;3247;48.946;10.220;2022-08-19T13:57:29;18.80;99.90
6429;DHT22;3247;48.946;10.220;2022-08-19T13:59:57;18.80;99.90
6429;DHT22;3247;48.946;10.220;2022-08-19T14:02:23;20.20;99.90
6429;DHT22;3247;48.946;10.220;2022-08-19T14:04:48;19.20;99.90
6429;DHT22;3247;48.946;10.220;2022-08-19T14:07:14;18.70;99.90
6429;DHT22;3247;48.946;10.220;2022-08-19T14:09:39;18.70;99.90
6429;DHT22;3247;48.946;10.220;2022-08-19T14:12:04;19.30;99.90
6429;DHT22;3247;48.946;10.220;2022-08-19T14:14:30;18.70;99.90
6429;DHT22;3247;48.946;10.220;2022-08-19T14:16:56;18.70;99.90
6429;DHT22;3247;48.946;10.220;2022-08-19T14:19:22;19.30;99.90
6429;DHT22;3247;48.946;10.220;2022-08-19T14:21:47;18.40;99.90
6429;DHT22;3247;48.946;10.220;2022-08-19T14:24:13;19.90;99.90
6429;DHT22;3247;48.946;10.220;2022-08-19T14:26:38;18.60;99.90
6429;DHT22;3247;48.946;10.220;2022-08-19T14:29:04;18.60;99.90
6429;DHT22;3247;48.946;10.220;2022-08-19T14:31:29;18.60;99.90
6429;DHT22;3247;48.946;10.220;2022-08-19T14:33:55;18.60;99.90
6429;DHT22;3247;48.946;10.220;2022-08-19T14:36:20;19.00;99.90
6429;DHT22;3247;48.946;10.220;2022-08-19T14:38:47;18.60;99.90
6429;DHT22;3247;48.946;10.220;2022-08-19T14:41:15;18.60;99.90
6429;DHT22;3247;48.946;10.220;2022-08-19T14:43:46;18.60;99.90
6429;DHT22;3247;48.946;10.220;2022-08-19T14:46:15;18.60;99.90
6429;DHT22;3247;48.946;10.220;2022-08-19T14:48:46;18.50;99.90
6429;DHT22;3247;48.946;10.220;2022-08-19T14:51:12;18.50;99.90
6429;DHT22;3247;48.946;10.220;2022-08-19T14:53:38;18.50;99.90
6429;DHT22;3247;48.946;10.220;2022-08-19T14:56:07;18.50;99.90
6429;DHT22;3247;48.946;10.220;2022-08-19T14:58:33;18.50;99.90
6429;DHT22;3247;48.946;10.220;2022-08-19T15:00:59;18.50;99.90
6429;DHT22;3247;48.946;10.220;2022-08-19T15:03:25;18.40;99.90
6429;DHT22;3247;48.946;10.220;2022-08-19T15:05:51;18.40;99.90
6429;DHT22;3247;48.946;10.220;2022-08-19T15:08:16;18.40;99.90
6429;DHT22;3247;48.946;10.220;2022-08-19T15:10:42;18.30;99.90
6429;DHT22;3247;48.946;10.220;2022-08-19T15:13:08;18.30;99.90
6429;DHT22;3247;48.946;10.220;2022-08-19T15:15:35;19.20;99.90
6429;DHT22;3247;48.946;10.220;2022-08-19T15:18:05;18.30;99.90
6429;DHT22;3247;48.946;10.220;2022-08-19T15:20:31;18.30;99.90
6429;DHT22;3247;48.946;10.220;2022-08-19T15:22:57;18.30;99.90
6429;DHT22;3247;48.946;10.220;2022-08-19T15:25:24;18.70;99.90
6429;DHT22;3247;48.946;10.220;2022-08-19T15:27:49;18.30;99.90
6429;DHT22;3247;48.946;10.220;2022-08-19T15:30:19;18.30;99.90
6429;DHT22;3247;48.946;10.220;2022-08-19T15:32:45;18.40;99.90
6429;DHT22;3247;48.946;10.220;2022-08-19T15:35:11;18.40;99.90
6429;DHT22;3247;48.946;10.220;2022-08-19T15:37:37;18.40;99.90
6429;DHT22;3247;48.946;10.220;2022-08-19T15:40:04;18.30;99.90
6429;DHT22;3247;48.946;10.220;2022-08-19T15:42:30;18.30;99.90
6429;DHT22;3247;48.946;10.220;2022-08-19T15:44:55;18.30;99.90
6429;DHT22;3247;48.946;10.220;2022-08-19T15:47:21;18.30;99.90
6429;DHT22;3247;48.946;10.220;2022-08-19T15:49:50;18.30;99.90
6429;DHT22;3247;48.946;10.220;2022-08-19T15:52:18;18.30;99.90
6429;DHT22;3247;48.946;10.220;2022-08-19T15:54:44;18.30;99.90
6429;DHT22;3247;48.946;10.220;2022-08-19T15:57:09;18.30;99.90
6429;DHT22;3247;48.946;10.220;2022-08-19T15:59:47;17.00;99.90
6429;DHT22;3247;48.946;10.220;2022-08-19T16:02:32;18.30;99.90
6429;DHT22;3247;48.946;10.220;2022-08-19T16:05:18;18.20;99.90